This is the latest recevied weather packets stored in our database for station/object 9M4RBN-3. If no packets are shown the sender has not sent any weather packets the latest 1 day(s).
| Time | Temp. | Humidity | Pressure | Rain* | Wind** | Luminosity | Snow |
|---|---|---|---|---|---|---|---|
| 1778052102 | 26.67° C | 47% | 1011.9 hPa | - | - | - | - |
| 1778051202 | 26.67° C | 47% | 1012 hPa | - | - | - | - |
| 1778050302 | 26.67° C | 48% | 1012.2 hPa | - | - | - | - |
| 1778049402 | 26.67° C | 48% | 1012.5 hPa | - | - | - | - |
| 1778048502 | 26.67° C | 49% | 1012.9 hPa | - | - | - | - |
| 1778047602 | 26.11° C | 49% | 1013.1 hPa | - | - | - | - |
| 1778046702 | 26.11° C | 49% | 1013.5 hPa | - | - | - | - |
| 1778045802 | 26.11° C | 50% | 1013.8 hPa | - | - | - | - |
| 1778044902 | 26.11° C | 51% | 1014 hPa | - | - | - | - |
| 1778044002 | 26.11° C | 53% | 1014.3 hPa | - | - | - | - |
| 1778041301 | 26.11° C | 44% | 1014.8 hPa | - | - | - | - |
| 1778039501 | 26.11° C | 69% | 1015.3 hPa | - | - | - | - |
| 1778038601 | 25.56° C | 41% | 1015.3 hPa | - | - | - | - |
| 1778037701 | 26.11° C | 42% | 1015.3 hPa | - | - | - | - |
| 1778036801 | 26.67° C | 46% | 1015.4 hPa | - | - | - | - |
| 1778035901 | 27.78° C | 62% | 1015.5 hPa | - | - | - | - |
| 1778034105 | 27.78° C | 73% | 1015.7 hPa | - | - | - | - |
| 1778031402 | 27.22° C | 70% | 1015.3 hPa | - | - | - | - |
| 1778029602 | 26.67° C | 68% | 1015 hPa | - | - | - | - |
| 1778028702 | 26.67° C | 66% | 1014.8 hPa | - | - | - | - |
| 1778027802 | 26.11° C | 62% | 1014.6 hPa | - | - | - | - |
| 1778026905 | 25.56° C | 57% | 1014.4 hPa | - | - | - | - |
| 1778022402 | 24.44° C | 45% | 1013.6 hPa | - | - | - | - |
| 1778021502 | 24.44° C | 44% | 1013.5 hPa | - | - | - | - |
* Rain since midnight (hover to see other rain measurements)
** Current wind speed in m/s (hover to see current wind gust speed)